Time;durP1;ratioP1;P1;durP2;ratioP2;P2;SDS_P1;SDS_P2;PMS_P1;PMS_P2;Temp;Humidity;BMP_temperature;BMP_pressure;BME280_temperature;BME280_humidity;BME280_pressure;Samples;Min_cycle;Max_cycle;Signal;HPM_P1;HPM_P2
2023/07/28 00:00:33;;;;;;;30.00;15.48;;;17.90;99.90;;;;;;5122897;27;20177;-79
2023/07/28 00:02:58;;;;;;;34.92;16.13;;;17.90;99.90;;;;;;5116471;27;20051;-79
2023/07/28 00:05:24;;;;;;;28.13;14.45;;;17.90;99.90;;;;;;5136361;27;20134;-78
2023/07/28 00:07:50;;;;;;;23.80;12.50;;;17.90;99.90;;;;;;5113362;27;20438;-78
2023/07/28 00:10:15;;;;;;;29.52;14.98;;;17.90;99.90;;;;;;5135544;27;20073;-79
2023/07/28 00:12:41;;;;;;;21.33;10.75;;;17.90;99.90;;;;;;5133218;27;20031;-79
2023/07/28 00:15:07;;;;;;;19.40;10.65;;;17.90;99.90;;;;;;5137340;27;20039;-79
2023/07/28 00:17:32;;;;;;;16.58;10.77;;;17.90;99.90;;;;;;5112583;27;20039;-79
2023/07/28 00:19:58;;;;;;;22.65;12.07;;;17.90;99.90;;;;;;5130450;27;20182;-79
2023/07/28 00:22:23;;;;;;;18.50;8.88;;;17.90;99.90;;;;;;5140680;27;20382;-79
2023/07/28 00:24:49;;;;;;;25.00;11.52;;;17.90;99.90;;;;;;5112800;27;20042;-79
2023/07/28 00:27:15;;;;;;;22.75;11.98;;;17.90;99.90;;;;;;5118837;27;20058;-79
2023/07/28 00:29:41;;;;;;;19.63;10.10;;;17.90;99.90;;;;;;5130177;27;20087;-80
2023/07/28 00:32:07;;;;;;;17.83;9.48;;;17.90;99.90;;;;;;5121346;27;20030;-79
2023/07/28 00:34:33;;;;;;;24.73;11.30;;;17.90;99.90;;;;;;5118120;27;20454;-79
2023/07/28 00:36:58;;;;;;;27.70;14.43;;;17.90;99.90;;;;;;5130694;27;20052;-79
2023/07/28 00:39:24;;;;;;;23.58;11.82;;;17.80;99.90;;;;;;5130719;27;20026;-79
2023/07/28 00:41:49;;;;;;;24.23;12.63;;;17.90;99.90;;;;;;5131745;27;20378;-79
2023/07/28 00:44:16;;;;;;;29.30;14.73;;;17.90;99.90;;;;;;5135669;27;20114;-79
2023/07/28 00:46:43;;;;;;;26.85;14.90;;;17.90;99.90;;;;;;5135456;27;20043;-79
2023/07/28 00:49:08;;;;;;;22.88;12.73;;;17.90;99.90;;;;;;5129836;27;20489;-79
2023/07/28 00:51:35;;;;;;;25.80;13.70;;;17.90;99.90;;;;;;5139076;27;20115;-79
2023/07/28 00:54:02;;;;;;;19.15;11.45;;;17.90;99.90;;;;;;5129950;27;20298;-79
2023/07/28 00:56:28;;;;;;;25.58;14.77;;;17.90;99.90;;;;;;5135899;27;20031;-79
2023/07/28 00:58:54;;;;;;;24.75;14.85;;;17.90;99.90;;;;;;5133118;27;20035;-79
2023/07/28 01:01:19;;;;;;;22.25;14.20;;;17.90;99.90;;;;;;5113447;27;20058;-79
2023/07/28 01:03:45;;;;;;;35.47;16.70;;;17.80;99.90;;;;;;5131649;27;20057;-79
2023/07/28 01:06:22;;;;;;;31.30;15.65;;;17.90;99.90;;;;;;5140385;27;20043;-79
2023/07/28 01:08:53;;;;;;;25.70;14.90;;;17.90;99.90;;;;;;5140683;27;20106;-79
2023/07/28 01:11:19;;;;;;;41.17;15.13;;;17.80;99.90;;;;;;5113548;27;20152;-79
2023/07/28 01:13:45;;;;;;;30.55;16.52;;;17.90;99.90;;;;;;5127954;27;20111;-80
2023/07/28 01:16:11;;;;;;;37.58;17.45;;;17.90;99.90;;;;;;5140279;27;20043;-79
2023/07/28 01:18:37;;;;;;;28.95;16.20;;;17.80;99.90;;;;;;5117390;27;20420;-79
2023/07/28 01:21:06;;;;;;;34.58;18.27;;;17.90;99.90;;;;;;5132373;27;20027;-79
2023/07/28 01:23:58;;;;;;;35.97;17.55;;;17.90;99.90;;;;;;5131566;27;20035;-79
2023/07/28 01:26:35;;;;;;;33.88;16.98;;;17.90;99.90;;;;;;5108342;27;20111;-79
2023/07/28 01:29:03;;;;;;;27.17;16.30;;;17.90;99.90;;;;;;5125105;27;20046;-79
2023/07/28 01:31:29;;;;;;;28.60;17.00;;;17.90;99.90;;;;;;5140052;27;20082;-79
2023/07/28 01:33:55;;;;;;;34.72;18.25;;;17.80;99.90;;;;;;5137627;27;20037;-79
2023/07/28 01:36:20;;;;;;;37.58;18.73;;;17.90;99.90;;;;;;5132201;27;20456;-79
2023/07/28 01:38:46;;;;;;;40.72;20.17;;;17.90;99.90;;;;;;5135032;27;20489;-79
2023/07/28 01:41:12;;;;;;;38.10;21.08;;;17.90;99.90;;;;;;5116176;27;20039;-79
2023/07/28 01:43:37;;;;;;;45.33;20.13;;;17.90;99.90;;;;;;5111728;27;20042;-79
2023/07/28 01:46:03;;;;;;;43.63;22.48;;;17.90;99.90;;;;;;5114549;27;20035;-79
2023/07/28 01:48:29;;;;;;;34.63;18.48;;;17.90;99.90;;;;;;5138119;27;20039;-79
2023/07/28 01:50:54;;;;;;;43.40;23.83;;;17.90;99.90;;;;;;5118297;27;20042;-79
2023/07/28 01:53:20;;;;;;;39.70;21.52;;;17.90;99.90;;;;;;5135460;27;20035;-79
2023/07/28 01:55:46;;;;;;;46.90;23.73;;;17.90;99.90;;;;;;5135838;27;20961;-79
2023/07/28 01:58:11;;;;;;;49.33;24.90;;;17.90;99.90;;;;;;5134575;27;20059;-79
2023/07/28 02:00:37;;;;;;;41.47;23.98;;;17.90;99.90;;;;;;5130096;27;20083;-79
2023/07/28 02:03:03;;;;;;;44.97;25.67;;;17.90;99.90;;;;;;5142720;27;20063;-79
2023/07/28 02:05:30;;;;;;;36.78;21.20;;;17.90;99.90;;;;;;5143109;27;20042;-79
2023/07/28 02:07:56;;;;;;;44.45;23.90;;;17.80;99.90;;;;;;5140394;27;20039;-79
2023/07/28 02:10:23;;;;;;;38.53;23.05;;;17.80;99.90;;;;;;5116502;27;20084;-79
2023/07/28 02:12:50;;;;;;;31.65;19.00;;;17.90;99.90;;;;;;5135891;27;20038;-79
2023/07/28 02:15:16;;;;;;;37.58;22.13;;;17.90;99.90;;;;;;5132982;27;20061;-79
2023/07/28 02:17:41;;;;;;;28.52;16.70;;;17.80;99.90;;;;;;5133379;27;20035;-79
2023/07/28 02:20:10;;;;;;;34.67;21.58;;;17.80;99.90;;;;;;5136221;27;20039;-79
2023/07/28 02:22:36;;;;;;;34.17;19.30;;;17.80;99.90;;;;;;5117795;27;20492;-79
2023/07/28 02:25:02;;;;;;;31.45;19.05;;;17.80;99.90;;;;;;5139951;27;20071;-79
2023/07/28 02:27:28;;;;;;;42.30;21.58;;;17.80;99.90;;;;;;5133967;27;20059;-79
2023/07/28 02:29:54;;;;;;;32.80;20.95;;;17.80;99.90;;;;;;5138945;27;20043;-79
2023/07/28 02:32:20;;;;;;;43.47;22.77;;;17.80;99.90;;;;;;5124314;27;20045;-79
2023/07/28 02:34:45;;;;;;;44.70;21.95;;;17.80;99.90;;;;;;5140778;27;20030;-79
2023/07/28 02:37:11;;;;;;;29.73;18.08;;;17.80;99.90;;;;;;5121668;27;20058;-79
2023/07/28 02:39:37;;;;;;;36.10;19.00;;;17.80;99.90;;;;;;5132765;27;20038;-79
2023/07/28 02:42:02;;;;;;;30.95;18.17;;;17.80;99.90;;;;;;5132681;27;20035;-79
2023/07/28 02:44:28;;;;;;;38.72;22.33;;;17.80;99.90;;;;;;5138028;27;20035;-79
2023/07/28 02:46:54;;;;;;;44.17;19.08;;;17.90;99.90;;;;;;5132612;27;20043;-79
2023/07/28 02:49:19;;;;;;;34.97;18.77;;;17.90;99.90;;;;;;5132580;27;20182;-78
2023/07/28 02:51:45;;;;;;;40.88;19.60;;;17.90;99.90;;;;;;5135725;27;20390;-79
2023/07/28 02:54:10;;;;;;;38.30;20.58;;;17.90;99.90;;;;;;5124091;27;20031;-79
2023/07/28 02:56:37;;;;;;;33.30;19.08;;;17.90;99.90;;;;;;5136118;27;20027;-79
2023/07/28 02:59:06;;;;;;;42.05;20.58;;;17.90;99.90;;;;;;5131620;27;20054;-79
2023/07/28 03:01:33;;;;;;;36.88;18.77;;;17.90;99.90;;;;;;5132316;27;20039;-79
2023/07/28 03:04:00;;;;;;;33.58;18.88;;;17.90;99.90;;;;;;5138697;27;20074;-79
2023/07/28 03:06:26;;;;;;;36.20;18.70;;;17.90;99.90;;;;;;5136433;27;20035;-79
2023/07/28 03:08:51;;;;;;;31.85;17.65;;;17.90;99.90;;;;;;5143795;27;20724;-79
2023/07/28 03:11:17;;;;;;;31.33;18.27;;;17.90;99.90;;;;;;5139918;27;20172;-79
2023/07/28 03:13:43;;;;;;;44.33;19.65;;;17.80;99.90;;;;;;5134164;27;20393;-79
2023/07/28 03:16:09;;;;;;;32.72;17.05;;;17.80;99.90;;;;;;5131897;27;20039;-79
2023/07/28 03:18:35;;;;;;;41.70;18.60;;;17.80;99.90;;;;;;5133868;27;20027;-79
2023/07/28 03:21:01;;;;;;;35.05;19.50;;;17.90;99.90;;;;;;5138794;27;20035;-79
2023/07/28 03:23:26;;;;;;;39.58;18.95;;;17.90;99.90;;;;;;5140488;27;20058;-79
2023/07/28 03:25:52;;;;;;;45.92;18.20;;;17.90;99.90;;;;;;5139486;27;20409;-79
2023/07/28 03:28:18;;;;;;;46.08;20.40;;;17.90;99.90;;;;;;5131716;27;20043;-79
2023/07/28 03:30:43;;;;;;;29.25;17.20;;;17.90;99.90;;;;;;5131961;27;20031;-79
2023/07/28 03:33:09;;;;;;;44.90;19.52;;;17.90;99.90;;;;;;5133543;27;20141;-79
2023/07/28 03:35:35;;;;;;;44.50;17.77;;;17.90;99.90;;;;;;5136171;27;20126;-79
2023/07/28 03:38:00;;;;;;;34.53;17.13;;;18.00;99.90;;;;;;5131755;27;20035;-79
2023/07/28 03:40:26;;;;;;;38.75;17.67;;;17.90;99.90;;;;;;5116192;27;20039;-79
2023/07/28 03:42:52;;;;;;;41.88;16.08;;;17.90;99.90;;;;;;5097951;27;20659;-79
2023/07/28 03:45:18;;;;;;;33.70;16.20;;;17.90;99.90;;;;;;5113572;27;20049;-79
2023/07/28 03:47:43;;;;;;;34.92;15.35;;;17.80;99.90;;;;;;5113477;27;20038;-79
2023/07/28 03:50:09;;;;;;;26.75;13.30;;;17.90;99.90;;;;;;5134611;27;20079;-79
2023/07/28 03:52:35;;;;;;;29.00;13.73;;;17.80;99.90;;;;;;5135600;27;20059;-79
2023/07/28 03:55:01;;;;;;;26.92;15.30;;;17.80;99.90;;;;;;5131392;27;20433;-79
2023/07/28 03:57:27;;;;;;;33.72;16.13;;;17.80;99.90;;;;;;5133466;27;20030;-80
2023/07/28 03:59:52;;;;;;;36.67;15.82;;;17.80;99.90;;;;;;5137824;27;20080;-79
2023/07/28 04:02:18;;;;;;;31.85;15.38;;;17.80;99.90;;;;;;5136447;27;20047;-79
2023/07/28 04:04:44;;;;;;;24.40;14.07;;;17.80;99.90;;;;;;5131450;27;20023;-79
2023/07/28 04:07:09;;;;;;;24.85;13.18;;;17.80;99.90;;;;;;5131080;27;20051;-80
2023/07/28 04:09:35;;;;;;;33.70;14.57;;;17.80;99.90;;;;;;5130838;27;20046;-79
2023/07/28 04:12:00;;;;;;;34.00;14.70;;;17.80;99.90;;;;;;5130379;27;20035;-79
2023/07/28 04:14:26;;;;;;;30.77;13.85;;;17.80;99.90;;;;;;5131408;27;20038;-79
2023/07/28 04:16:52;;;;;;;27.23;13.38;;;17.80;99.90;;;;;;5135298;27;20428;-79
2023/07/28 04:19:18;;;;;;;33.35;13.77;;;17.80;99.90;;;;;;5135467;27;20043;-79
2023/07/28 04:21:43;;;;;;;31.13;15.30;;;17.80;99.90;;;;;;5131410;27;20362;-79
2023/07/28 04:24:09;;;;;;;23.75;13.50;;;17.80;99.90;;;;;;5130801;27;20087;-79
2023/07/28 04:26:35;;;;;;;32.72;14.52;;;17.80;99.90;;;;;;5113529;27;20035;-79
2023/07/28 04:29:01;;;;;;;24.75;13.30;;;17.80;99.90;;;;;;5131631;27;20046;-79
2023/07/28 04:31:27;;;;;;;29.55;14.15;;;17.90;99.90;;;;;;5141137;27;20030;-79
2023/07/28 04:33:52;;;;;;;26.40;13.85;;;17.80;99.90;;;;;;5131378;27;20031;-79
2023/07/28 04:36:18;;;;;;;29.60;14.35;;;17.80;99.90;;;;;;5141458;27;20050;-80
2023/07/28 04:38:44;;;;;;;29.33;13.65;;;17.80;99.90;;;;;;5126750;27;20038;-79
2023/07/28 04:41:09;;;;;;;23.98;13.68;;;17.90;99.90;;;;;;5133205;27;20035;-80
2023/07/28 04:43:35;;;;;;;24.95;14.00;;;17.90;99.90;;;;;;5137461;27;20028;-79
2023/07/28 04:46:00;;;;;;;26.90;13.35;;;17.90;99.90;;;;;;5132918;27;20034;-79
2023/07/28 04:48:27;;;;;;;28.67;12.93;;;17.90;99.90;;;;;;5128688;27;20030;-80
2023/07/28 04:50:53;;;;;;;32.70;14.85;;;17.90;99.90;;;;;;5130404;27;20074;-79
2023/07/28 04:53:19;;;;;;;26.33;13.20;;;17.90;99.90;;;;;;5112052;27;20089;-79
2023/07/28 04:55:45;;;;;;;23.88;11.57;;;17.90;99.90;;;;;;5114951;27;20102;-79
2023/07/28 04:58:10;;;;;;;23.10;12.98;;;17.90;99.90;;;;;;5096337;27;20092;-79
2023/07/28 05:00:36;;;;;;;24.45;11.20;;;17.90;99.90;;;;;;5131858;27;20039;-79
2023/07/28 05:03:01;;;;;;;20.83;11.35;;;17.90;99.90;;;;;;5121375;27;20655;-79
2023/07/28 05:05:29;;;;;;;22.25;12.73;;;17.90;99.90;;;;;;5139598;27;20050;-79
2023/07/28 05:07:56;;;;;;;27.70;13.82;;;17.90;99.90;;;;;;5137757;27;20079;-79
2023/07/28 05:10:21;;;;;;;27.08;13.27;;;17.90;99.90;;;;;;5133694;27;20070;-79
2023/07/28 05:12:47;;;;;;;27.38;12.82;;;17.90;99.90;;;;;;5112587;27;20042;-79
2023/07/28 05:15:15;;;;;;;24.75;13.68;;;18.00;99.90;;;;;;5129747;27;20050;-79
2023/07/28 05:17:40;;;;;;;24.10;12.52;;;17.90;99.90;;;;;;5140405;27;20035;-79
2023/07/28 05:20:06;;;;;;;23.92;13.00;;;18.00;99.90;;;;;;5132477;27;20035;-79
2023/07/28 05:22:32;;;;;;;24.33;12.48;;;17.90;99.90;;;;;;5133999;27;20042;-79
2023/07/28 05:24:58;;;;;;;29.27;12.85;;;18.00;99.90;;;;;;5129555;27;20035;-79
2023/07/28 05:27:24;;;;;;;26.98;11.73;;;17.90;99.90;;;;;;5140501;27;20442;-79
2023/07/28 05:29:49;;;;;;;27.63;13.98;;;18.00;99.90;;;;;;5139231;27;20063;-79
2023/07/28 05:32:15;;;;;;;25.38;13.32;;;18.00;99.90;;;;;;5136722;27;20039;-79
2023/07/28 05:34:44;;;;;;;21.35;12.70;;;18.00;99.90;;;;;;5132747;27;20723;-79
2023/07/28 05:37:10;;;;;;;21.75;12.90;;;18.00;99.90;;;;;;5136782;27;20071;-80
2023/07/28 05:39:36;;;;;;;26.95;14.23;;;18.10;99.90;;;;;;5134049;27;20393;-79
2023/07/28 05:42:02;;;;;;;35.72;13.30;;;18.00;99.90;;;;;;5129913;27;20042;-79
2023/07/28 05:44:28;;;;;;;26.17;13.73;;;18.10;99.90;;;;;;5129979;27;20043;-79
2023/07/28 05:46:54;;;;;;;25.50;12.32;;;18.00;99.90;;;;;;5138740;27;20042;-79
2023/07/28 05:49:19;;;;;;;22.20;11.85;;;18.00;99.90;;;;;;5132176;27;20107;-79
2023/07/28 05:51:45;;;;;;;17.05;9.35;;;18.00;99.90;;;;;;5133888;27;20146;-79
2023/07/28 05:54:14;;;;;;;18.13;10.20;;;18.00;99.90;;;;;;5129198;27;20039;-79
2023/07/28 05:56:40;;;;;;;17.23;10.45;;;17.90;99.90;;;;;;5129593;27;20114;-79
2023/07/28 05:59:06;;;;;;;19.38;9.63;;;18.00;99.90;;;;;;5130154;27;20046;-79
2023/07/28 06:01:33;;;;;;;17.40;9.30;;;18.00;99.90;;;;;;5134911;27;20055;-79
2023/07/28 06:03:59;;;;;;;19.30;9.65;;;18.10;99.90;;;;;;5137231;27;20031;-79
2023/07/28 06:06:26;;;;;;;16.88;9.30;;;18.10;99.90;;;;;;5133264;27;20117;-79
2023/07/28 06:08:52;;;;;;;21.20;9.20;;;18.10;99.90;;;;;;5137444;27;20046;-79
2023/07/28 06:11:18;;;;;;;14.48;8.13;;;18.10;99.90;;;;;;5130722;27;20070;-79
2023/07/28 06:13:45;;;;;;;17.23;10.25;;;18.20;99.90;;;;;;5134755;27;20111;-80
2023/07/28 06:16:10;;;;;;;18.95;9.60;;;18.20;99.90;;;;;;5134652;27;20050;-79
2023/07/28 06:18:36;;;;;;;15.02;8.82;;;18.20;99.90;;;;;;5134739;27;20027;-79
2023/07/28 06:21:02;;;;;;;15.88;9.07;;;18.30;99.90;;;;;;5135720;27;20031;-80
2023/07/28 06:23:27;;;;;;;18.08;9.38;;;18.30;99.90;;;;;;5139337;27;20119;-80
2023/07/28 06:25:54;;;;;;;17.38;10.93;;;18.30;99.90;;;;;;5134777;27;20084;-80
2023/07/28 06:28:20;;;;;;;15.27;9.50;;;18.30;99.90;;;;;;5134008;27;20034;-80
2023/07/28 06:30:46;;;;;;;14.93;9.43;;;18.40;99.90;;;;;;5130593;27;20405;-79
2023/07/28 06:33:11;;;;;;;12.73;7.50;;;18.40;99.90;;;;;;5144415;27;20031;-79
2023/07/28 06:35:37;;;;;;;14.20;8.05;;;18.40;99.90;;;;;;5137465;27;20569;-79
2023/07/28 06:38:03;;;;;;;15.77;8.15;;;18.40;99.90;;;;;;5122678;27;20038;-80
2023/07/28 06:40:29;;;;;;;14.68;8.23;;;18.40;99.90;;;;;;5142819;27;20041;-80
2023/07/28 06:42:55;;;;;;;13.43;7.80;;;18.30;99.90;;;;;;5141769;27;20474;-80
2023/07/28 06:45:21;;;;;;;15.70;7.72;;;18.30;99.90;;;;;;5127590;27;20087;-79
2023/07/28 06:47:47;;;;;;;13.57;8.25;;;18.40;99.90;;;;;;5144881;27;20034;-79
2023/07/28 06:50:13;;;;;;;20.00;9.15;;;18.40;99.90;;;;;;5118037;27;20053;-79
2023/07/28 06:52:39;;;;;;;17.25;7.57;;;18.40;99.90;;;;;;5143712;27;20104;-80
2023/07/28 06:55:05;;;;;;;16.48;8.40;;;18.40;99.90;;;;;;5121625;27;20066;-79
2023/07/28 06:57:31;;;;;;;20.38;8.43;;;18.50;99.90;;;;;;5118743;27;20074;-79
2023/07/28 06:59:56;;;;;;;14.07;7.38;;;18.50;99.90;;;;;;5136040;27;20039;-79
2023/07/28 07:02:22;;;;;;;12.43;8.13;;;18.50;99.90;;;;;;5114978;27;20065;-80
2023/07/28 07:04:48;;;;;;;14.50;9.07;;;18.60;99.90;;;;;;5120938;27;20138;-80
2023/07/28 07:07:14;;;;;;;12.90;7.90;;;18.60;99.90;;;;;;5142517;27;20421;-80
2023/07/28 07:09:40;;;;;;;9.00;6.75;;;18.60;99.90;;;;;;5124282;27;20416;-79
2023/07/28 07:12:08;;;;;;;12.27;7.30;;;18.60;99.90;;;;;;5124070;27;20039;-80
2023/07/28 07:14:34;;;;;;;9.68;6.07;;;18.60;99.90;;;;;;5132559;27;20031;-80
2023/07/28 07:16:59;;;;;;;9.15;6.35;;;18.60;99.90;;;;;;5117406;27;20041;-80
2023/07/28 07:19:25;;;;;;;8.35;6.10;;;18.70;99.90;;;;;;5144821;27;20504;-80
2023/07/28 07:21:51;;;;;;;9.18;4.97;;;18.70;99.90;;;;;;5142295;27;20045;-79
2023/07/28 07:24:17;;;;;;;7.72;4.75;;;18.80;99.90;;;;;;5135090;27;20110;-79
2023/07/28 07:26:42;;;;;;;23.00;7.25;;;18.80;99.90;;;;;;5137198;27;20038;-80
2023/07/28 07:29:09;;;;;;;7.03;4.65;;;18.90;99.90;;;;;;5125613;27;20070;-80
2023/07/28 07:31:35;;;;;;;7.60;4.20;;;19.00;99.90;;;;;;5122319;27;20545;-79
2023/07/28 07:34:00;;;;;;;8.70;4.80;;;19.00;99.90;;;;;;5136536;27;20110;-80
2023/07/28 07:36:26;;;;;;;9.10;5.13;;;19.10;99.90;;;;;;5138508;27;20057;-80
2023/07/28 07:38:52;;;;;;;11.57;5.00;;;19.30;99.90;;;;;;5138645;27;20052;-79
2023/07/28 07:41:21;;;;;;;10.90;4.70;;;19.40;99.90;;;;;;5140804;27;20508;-80
2023/07/28 07:43:47;;;;;;;6.20;3.85;;;19.40;99.90;;;;;;5135266;27;20069;-80
2023/07/28 07:46:14;;;;;;;6.03;3.88;;;19.50;99.90;;;;;;5139497;27;20042;-79
2023/07/28 07:48:39;;;;;;;6.10;3.75;;;19.50;99.90;;;;;;5135438;27;20038;-79
2023/07/28 07:51:06;;;;;;;6.40;4.15;;;19.60;99.90;;;;;;5121561;27;20045;-80
2023/07/28 07:53:32;;;;;;;8.55;4.55;;;19.70;99.90;;;;;;5118737;27;20043;-80
2023/07/28 07:55:58;;;;;;;8.15;4.53;;;19.70;99.90;;;;;;5115386;27;20035;-79
2023/07/28 07:58:23;;;;;;;8.65;4.65;;;19.80;99.90;;;;;;5118637;27;20030;-80
2023/07/28 08:00:49;;;;;;;6.80;4.43;;;19.80;99.90;;;;;;5105253;27;20565;-80
2023/07/28 08:03:15;;;;;;;9.80;3.90;;;19.90;99.90;;;;;;5141918;27;20096;-80
2023/07/28 08:05:40;;;;;;;7.85;3.75;;;19.90;99.90;;;;;;5138063;27;20031;-78
2023/07/28 08:08:07;;;;;;;5.00;3.80;;;20.00;99.90;;;;;;5141686;27;20049;-78
2023/07/28 08:10:33;;;;;;;6.60;3.20;;;20.00;99.90;;;;;;5132356;27;20055;-79
2023/07/28 08:12:59;;;;;;;4.30;3.08;;;19.90;99.90;;;;;;5136988;27;20446;-78
2023/07/28 08:15:25;;;;;;;7.57;3.53;;;19.90;99.90;;;;;;5143210;27;20045;-79
2023/07/28 08:17:52;;;;;;;6.28;3.20;;;19.90;99.90;;;;;;5121157;27;20035;-78
2023/07/28 08:20:17;;;;;;;7.20;3.50;;;19.90;99.90;;;;;;5116288;27;20066;-79
2023/07/28 08:22:43;;;;;;;5.80;2.78;;;19.90;99.90;;;;;;5116372;27;20065;-79
2023/07/28 08:25:09;;;;;;;7.38;3.50;;;19.90;99.90;;;;;;5135655;27;20553;-79
2023/07/28 08:27:35;;;;;;;4.90;3.35;;;20.00;99.90;;;;;;5138122;27;20024;-79
2023/07/28 08:30:00;;;;;;;5.85;3.38;;;20.00;99.90;;;;;;5142670;27;20035;-79
2023/07/28 08:32:26;;;;;;;7.97;3.75;;;20.00;99.90;;;;;;5120459;27;20037;-79
2023/07/28 08:34:51;;;;;;;9.27;3.45;;;20.00;99.90;;;;;;5144188;27;20118;-79
2023/07/28 08:37:17;;;;;;;7.63;3.60;;;20.10;99.90;;;;;;5123742;27;20114;-78
2023/07/28 08:39:43;;;;;;;11.55;4.32;;;20.20;99.90;;;;;;5116555;27;20038;-79
2023/07/28 08:42:08;;;;;;;8.32;4.30;;;20.40;99.90;;;;;;5143313;27;20034;-79
2023/07/28 08:44:35;;;;;;;5.88;2.95;;;20.50;99.90;;;;;;5142036;27;20039;-79
2023/07/28 08:47:04;;;;;;;7.72;3.67;;;20.50;99.90;;;;;;5146681;27;20034;-78
2023/07/28 08:49:32;;;;;;;8.30;4.03;;;20.60;99.90;;;;;;5120337;27;20095;-79
2023/07/28 08:51:59;;;;;;;7.05;4.03;;;20.50;99.90;;;;;;5140489;27;20042;-80
2023/07/28 08:54:25;;;;;;;11.57;4.20;;;20.50;99.90;;;;;;5145275;27;20507;-79
2023/07/28 08:56:51;;;;;;;11.65;3.85;;;20.60;99.90;;;;;;5143054;27;20566;-79
2023/07/28 08:59:25;;;;;;;7.78;3.88;;;20.80;99.90;;;;;;5136194;27;20062;-78
2023/07/28 09:01:52;;;;;;;7.03;4.22;;;20.80;99.90;;;;;;5134201;27;20088;-79
2023/07/28 09:04:18;;;;;;;6.97;3.38;;;20.80;99.90;;;;;;5137469;27;20043;-79
2023/07/28 09:06:48;;;;;;;8.18;3.95;;;20.80;99.90;;;;;;5147214;27;20041;-78
2023/07/28 09:09:14;;;;;;;9.05;4.00;;;20.90;99.90;;;;;;5140980;27;20039;-79
2023/07/28 09:11:48;;;;;;;6.50;4.13;;;20.90;99.90;;;;;;5136456;27;20117;-79
2023/07/28 09:14:16;;;;;;;8.10;3.85;;;21.10;99.90;;;;;;5136339;27;20066;-80
2023/07/28 09:16:45;;;;;;;9.88;3.60;;;21.30;99.90;;;;;;5145279;27;20049;-80
2023/07/28 09:19:11;;;;;;;9.88;3.40;;;21.40;99.90;;;;;;5115339;27;20422;-79
2023/07/28 09:21:43;;;;;;;8.02;3.38;;;21.50;99.90;;;;;;5115407;27;20038;-77
2023/07/28 09:24:13;;;;;;;6.15;2.78;;;21.60;99.90;;;;;;5140752;27;20038;-77
2023/07/28 09:26:46;;;;;;;7.72;2.72;;;21.50;99.90;;;;;;5121492;27;20043;-77
2023/07/28 09:29:12;;;;;;;7.67;3.50;;;21.60;99.90;;;;;;5122274;27;20034;-77
2023/07/28 09:31:38;;;;;;;10.18;3.20;;;21.70;99.90;;;;;;5142915;27;20295;-76
2023/07/28 09:34:08;;;;;;;6.53;3.38;;;21.90;99.90;;;;;;5141948;27;20043;-77
2023/07/28 09:36:34;;;;;;;5.88;2.85;;;22.00;99.90;;;;;;5120969;27;20528;-76
2023/07/28 09:39:02;;;;;;;5.00;2.80;;;22.00;99.90;;;;;;5117121;27;20110;-77
2023/07/28 09:41:29;;;;;;;6.03;2.70;;;22.00;99.90;;;;;;5130114;27;20142;-77
2023/07/28 09:43:57;;;;;;;5.88;2.75;;;21.90;99.90;;;;;;5135970;27;20027;-77
2023/07/28 09:46:24;;;;;;;6.40;3.20;;;21.90;99.90;;;;;;5130736;27;20473;-77
2023/07/28 09:48:55;;;;;;;5.55;2.40;;;21.90;99.90;;;;;;5137320;27;20043;-77
2023/07/28 09:51:22;;;;;;;6.57;2.58;;;22.00;99.90;;;;;;5111971;28;20066;-77
2023/07/28 09:54:05;;;;;;;5.38;2.58;;;21.90;99.90;;;;;;5129799;27;20034;-77
2023/07/28 09:56:30;;;;;;;4.65;2.78;;;21.90;99.90;;;;;;5111571;28;20367;-77
2023/07/28 09:58:58;;;;;;;5.68;2.67;;;21.80;99.90;;;;;;5110328;27;20089;-77
2023/07/28 10:01:25;;;;;;;7.10;2.58;;;21.70;99.90;;;;;;5129850;27;20043;-77
2023/07/28 10:03:51;;;;;;;4.50;2.78;;;21.70;99.90;;;;;;5112289;27;20416;-77
2023/07/28 10:06:22;;;;;;;6.28;2.63;;;21.60;99.90;;;;;;5123848;27;20400;-77
2023/07/28 10:08:48;;;;;;;6.30;3.00;;;21.70;99.90;;;;;;5133042;27;20731;-78
2023/07/28 10:11:15;;;;;;;4.72;2.33;;;21.80;99.90;;;;;;5122731;27;20046;-79
2023/07/28 10:13:46;;;;;;;7.50;2.25;;;21.80;99.90;;;;;;5134064;27;20060;-79
2023/07/28 10:16:14;;;;;;;4.25;2.40;;;21.90;99.90;;;;;;5133921;27;20079;-79
2023/07/28 10:18:40;;;;;;;5.78;2.60;;;21.90;99.90;;;;;;5121482;27;20087;-79
2023/07/28 10:21:15;;;;;;;5.15;2.35;;;21.90;99.90;;;;;;5137880;27;20035;-78
2023/07/28 10:23:41;;;;;;;6.00;2.40;;;22.10;99.90;;;;;;5139577;27;20060;-78
2023/07/28 10:26:07;;;;;;;5.45;2.38;;;22.20;99.90;;;;;;5142716;27;20047;-79
2023/07/28 10:28:43;;;;;;;4.60;3.17;;;22.20;99.90;;;;;;5140094;27;20042;-79
2023/07/28 10:31:11;;;;;;;6.88;3.40;;;22.30;99.90;;;;;;5137587;27;20039;-79
2023/07/28 10:33:41;;;;;;;6.88;3.00;;;22.40;99.90;;;;;;5141402;27;20034;-79
2023/07/28 10:36:23;;;;;;;6.15;3.42;;;22.50;99.90;;;;;;5151208;27;20548;-79
2023/07/28 10:39:03;;;;;;;8.60;3.78;;;22.50;99.90;;;;;;5126644;27;20046;-79
2023/07/28 10:41:30;;;;;;;4.72;3.03;;;22.50;99.90;;;;;;5147058;27;20114;-79
2023/07/28 10:43:56;;;;;;;6.07;3.08;;;22.50;99.90;;;;;;5127780;27;20113;-79
2023/07/28 10:46:22;;;;;;;7.22;3.65;;;22.50;99.90;;;;;;5145830;27;20207;-79
2023/07/28 10:48:49;;;;;;;8.38;4.13;;;22.60;99.90;;;;;;5148718;27;20521;-79
2023/07/28 10:51:31;;;;;;;6.90;2.60;;;22.70;99.90;;;;;;5137661;27;20038;-79
2023/07/28 10:53:57;;;;;;;6.75;2.78;;;22.80;99.90;;;;;;5144281;27;20377;-79
2023/07/28 10:56:23;;;;;;;4.85;2.90;;;22.80;99.90;;;;;;5142151;27;20117;-79
2023/07/28 10:59:04;;;;;;;6.03;3.33;;;22.90;99.90;;;;;;5143440;27;20384;-78
2023/07/28 11:01:37;;;;;;;5.18;3.13;;;23.00;99.90;;;;;;5124390;27;20054;-79
2023/07/28 11:04:11;;;;;;;8.68;3.30;;;23.00;99.90;;;;;;5124350;27;20038;-80
2023/07/28 11:06:48;;;;;;;7.68;3.72;;;23.00;99.90;;;;;;5121415;27;20094;-77
2023/07/28 11:09:17;;;;;;;11.63;4.70;;;23.10;99.90;;;;;;5120292;27;20043;-76
2023/07/28 11:11:43;;;;;;;5.22;2.40;;;23.30;99.90;;;;;;5149626;27;20041;-77
2023/07/28 11:14:09;;;;;;;4.32;2.95;;;23.40;99.90;;;;;;5144594;27;20038;-78
2023/07/28 11:16:36;;;;;;;5.30;2.42;;;23.40;99.90;;;;;;5141781;27;20047;-77
2023/07/28 11:19:06;;;;;;;4.57;2.58;;;23.40;99.90;;;;;;5140491;27;20079;-78
2023/07/28 11:21:39;;;;;;;5.25;2.40;;;23.50;99.90;;;;;;5145889;27;20023;-78
2023/07/28 11:24:08;;;;;;;4.43;2.60;;;23.60;99.90;;;;;;5137334;27;20113;-78
2023/07/28 11:26:35;;;;;;;7.45;2.80;;;23.80;99.90;;;;;;5135117;27;20039;-78
2023/07/28 11:29:00;;;;;;;6.35;2.40;;;24.00;99.90;;;;;;5138976;27;20062;-78
2023/07/28 11:31:26;;;;;;;8.27;2.70;;;24.20;99.90;;;;;;5134163;27;20089;-78
2023/07/28 11:33:55;;;;;;;7.07;2.67;;;24.30;99.90;;;;;;5134909;27;20489;-78
2023/07/28 11:36:33;;;;;;;6.85;2.10;;;24.30;99.90;;;;;;5140337;27;20034;-78
2023/07/28 11:39:00;;;;;;;5.20;2.42;;;24.20;99.90;;;;;;5125458;27;20042;-78
2023/07/28 11:41:27;;;;;;;3.97;2.17;;;24.00;99.90;;;;;;5139889;27;20066;-77
2023/07/28 11:43:53;;;;;;;5.78;2.45;;;23.90;99.90;;;;;;5136880;27;20046;-77
2023/07/28 11:46:41;;;;;;;3.13;2.08;;;23.80;99.90;;;;;;5131942;27;20039;-78
2023/07/28 11:49:21;;;;;;;4.82;2.40;;;23.80;99.90;;;;;;5114289;27;20043;-78
2023/07/28 11:51:49;;;;;;;4.25;2.05;;;23.70;99.90;;;;;;5113539;27;20043;-78
2023/07/28 11:54:17;;;;;;;4.82;2.22;;;23.70;99.90;;;;;;5131701;27;20039;-78
2023/07/28 11:56:44;;;;;;;4.00;1.92;;;23.70;99.90;;;;;;5112529;27;20042;-78
2023/07/28 11:59:10;;;;;;;4.30;1.70;;;23.80;99.90;;;;;;5133296;27;20126;-78
2023/07/28 12:01:58;;;;;;;4.50;1.80;;;23.90;99.90;;;;;;5131612;27;20051;-78
2023/07/28 12:04:28;;;;;;;3.85;1.70;;;24.10;99.90;;;;;;5131685;27;20501;-78
2023/07/28 12:07:16;;;;;;;5.88;1.77;;;24.20;99.90;;;;;;5131368;27;20114;-78
2023/07/28 12:09:55;;;;;;;4.70;1.88;;;24.10;99.90;;;;;;5143265;27;20035;-78
2023/07/28 12:12:22;;;;;;;6.35;2.05;;;23.90;99.90;;;;;;5143359;27;20042;-78
2023/07/28 12:14:51;;;;;;;3.65;1.80;;;23.80;99.90;;;;;;5142829;27;20022;-78
2023/07/28 12:17:22;;;;;;;4.78;1.55;;;23.80;99.90;;;;;;5145118;27;20070;-79
2023/07/28 12:20:01;;;;;;;4.22;1.50;;;24.00;99.90;;;;;;5145368;27;20084;-78
2023/07/28 12:22:27;;;;;;;6.07;1.40;;;24.30;99.90;;;;;;5147901;27;20133;-78
2023/07/28 12:24:55;;;;;;;4.18;1.33;;;24.40;99.90;;;;;;5142970;27;20117;-78
2023/07/28 12:27:24;;;;;;;5.03;1.63;;;24.50;99.90;;;;;;5144807;27;20026;-78
2023/07/28 12:29:51;;;;;;;4.55;1.45;;;24.50;99.90;;;;;;5143975;27;20047;-78
2023/07/28 12:32:17;;;;;;;5.32;1.73;;;24.40;99.90;;;;;;5143427;27;20117;-79
2023/07/28 12:34:42;;;;;;;7.63;1.85;;;24.40;99.90;;;;;;5114980;27;20150;-78